Sitc Xiamen — 3ELU — position and weather

sailwx.info

Track history (hours):
 
Tides and Currents Weather Stations Pressure Air Temp Water Temp Dewpoint Dewpoint Depression Visibility Wind Speed Wind Dir Waves Ship Positions

Sitc Xiamen

Last reported at 2016-Jul-28 09:34 UTC. Time now 2016-Jul-28 10:31 UTC.
Position N 35°14' E 139°46'.

Length 145 m; draft 6.9 m.

Type: Cargo ship. MMSI: 355090000.

Date/timePositionNaut miles runAvg speedWind from/ knotsBaromVisibWave heightAir tempDewpointWater temp
2016-Jul-28 09:34N 35°14' E 139°46'1110.7
2016-Jul-28 08:34N 35°24' E 139°41'0 0.1
2016-Jul-28 07:31N 35°24' E 139°41'0 0.0
2016-Jul-28 06:31N 35°24' E 139°41'0 0.0
2016-Jul-28 05:31N 35°24' E 139°41'1 1.1
2016-Jul-28 04:33N 35°24' E 139°42'1211.7
2016-Jul-28 03:33N 35°34' E 139°49'4 3.6
2016-Jul-28 02:32N 35°37' E 139°46'0 0.0
2016-Jul-28 01:32N 35°37' E 139°46'0 0.0
2016-Jul-28 00:29N 35°37' E 139°46'0 0.0
2016-Jul-27 23:23N 35°37' E 139°46'0 0.0
2016-Jul-27 22:29N 35°37' E 139°46'5 5.3
2016-Jul-27 21:33N 35°34' E 139°51'0 0.2
2016-Jul-27 20:31N 35°34' E 139°51'0 0.0
2016-Jul-27 19:31N 35°34' E 139°51'0 0.0
2016-Jul-27 18:34N 35°34' E 139°51'0 0.0
2016-Jul-27 17:28N 35°34' E 139°51'6 6.8
2016-Jul-27 16:34N 35°28' E 139°51'1212.1
2016-Jul-27 15:33N 35°17' E 139°45'1312.5
2016-Jul-27 14:33N 35°05' E 139°41'  
2016-Jul-22 20:31N 30°58' E 122°38'1716.8
2016-Jul-22 19:32N 31°02' E 122°20'3612.1
2016-Jul-22 16:33N 31°19' E 121°42'3 2.7
2016-Jul-22 15:20N 31°20' E 121°39'0 0.0
2016-Jul-22 14:26N 31°20' E 121°39'0 0.0
2016-Jul-22 13:32N 31°20' E 121°39'0 0.0
2016-Jul-22 12:26N 31°20' E 121°39'0 0.0
2016-Jul-22 11:32N 31°20' E 121°39'0 0.0
2016-Jul-22 10:32N 31°20' E 121°39'0 0.0
2016-Jul-22 09:26N 31°20' E 121°39'0 0.0
2016-Jul-22 08:08N 31°20' E 121°39'2 3.7
2016-Jul-22 07:29N 31°19' E 121°42'6410.4
2016-Jul-22 01:18N 30°38' E 122°39'2514.0
2016-Jul-21 23:31N 30°13' E 122°37'1313.5
2016-Jul-21 22:32N 30°00' E 122°36'1313.0
2016-Jul-21 21:33N 29°48' E 122°33'1913.7
2016-Jul-21 20:10N 29°29' E 122°28'  
Track history (hours):
 
Tides and Currents Weather Stations Pressure Air Temp Water Temp Dewpoint Dewpoint Depression Visibility Wind Speed Wind Dir Waves Ship Positions

Sitc Xiamen

Last reported at 2016-Jul-28 09:34 UTC. Time now 2016-Jul-28 10:31 UTC.
Position N 35°14' E 139°46'.

Length 145 m; draft 6.9 m.

Type: Cargo ship. MMSI: 355090000.

Date/timePositionNaut miles runAvg speedWind from/ knotsBaromVisibWave heightAir tempDewpointWater temp
2016-Jul-28 09:34N 35°14' E 139°46'1110.7
2016-Jul-28 08:34N 35°24' E 139°41'0 0.1
2016-Jul-28 07:31N 35°24' E 139°41'0 0.0
2016-Jul-28 06:31N 35°24' E 139°41'0 0.0
2016-Jul-28 05:31N 35°24' E 139°41'1 1.1
2016-Jul-28 04:33N 35°24' E 139°42'1211.7
2016-Jul-28 03:33N 35°34' E 139°49'4 3.6
2016-Jul-28 02:32N 35°37' E 139°46'0 0.0
2016-Jul-28 01:32N 35°37' E 139°46'0 0.0
2016-Jul-28 00:29N 35°37' E 139°46'0 0.0
2016-Jul-27 23:23N 35°37' E 139°46'0 0.0
2016-Jul-27 22:29N 35°37' E 139°46'5 5.3
2016-Jul-27 21:33N 35°34' E 139°51'0 0.2
2016-Jul-27 20:31N 35°34' E 139°51'0 0.0
2016-Jul-27 19:31N 35°34' E 139°51'0 0.0
2016-Jul-27 18:34N 35°34' E 139°51'0 0.0
2016-Jul-27 17:28N 35°34' E 139°51'6 6.8
2016-Jul-27 16:34N 35°28' E 139°51'1212.1
2016-Jul-27 15:33N 35°17' E 139°45'1312.5
2016-Jul-27 14:33N 35°05' E 139°41'  
2016-Jul-22 20:31N 30°58' E 122°38'1716.8
2016-Jul-22 19:32N 31°02' E 122°20'3612.1
2016-Jul-22 16:33N 31°19' E 121°42'3 2.7
2016-Jul-22 15:20N 31°20' E 121°39'0 0.0
2016-Jul-22 14:26N 31°20' E 121°39'0 0.0
2016-Jul-22 13:32N 31°20' E 121°39'0 0.0
2016-Jul-22 12:26N 31°20' E 121°39'0 0.0
2016-Jul-22 11:32N 31°20' E 121°39'0 0.0
2016-Jul-22 10:32N 31°20' E 121°39'0 0.0
2016-Jul-22 09:26N 31°20' E 121°39'0 0.0
2016-Jul-22 08:08N 31°20' E 121°39'2 3.7
2016-Jul-22 07:29N 31°19' E 121°42'6410.4
2016-Jul-22 01:18N 30°38' E 122°39'2514.0
2016-Jul-21 23:31N 30°13' E 122°37'1313.5
2016-Jul-21 22:32N 30°00' E 122°36'1313.0
2016-Jul-21 21:33N 29°48' E 122°33'1913.7
2016-Jul-21 20:10N 29°29' E 122°28'  

Dump ship's entire track history